sensor_id;sensor_type;location;lat;lon;timestamp;temperature;humidity
68511;SHT31;55512;50.102;19.958;2023-11-18T00:01:24;5.58;72.51
68511;SHT31;55512;50.102;19.958;2023-11-18T00:03:50;5.60;72.48
68511;SHT31;55512;50.102;19.958;2023-11-18T00:06:16;5.59;72.49
68511;SHT31;55512;50.102;19.958;2023-11-18T00:08:42;5.59;72.50
68511;SHT31;55512;50.102;19.958;2023-11-18T00:11:08;5.59;72.44
68511;SHT31;55512;50.102;19.958;2023-11-18T00:13:36;5.58;72.49
68511;SHT31;55512;50.102;19.958;2023-11-18T00:16:04;5.59;72.52
68511;SHT31;55512;50.102;19.958;2023-11-18T00:18:31;5.60;72.53
68511;SHT31;55512;50.102;19.958;2023-11-18T00:20:57;5.60;72.53
68511;SHT31;55512;50.102;19.958;2023-11-18T00:23:23;5.57;72.60
68511;SHT31;55512;50.102;19.958;2023-11-18T00:25:51;5.53;72.64
68511;SHT31;55512;50.102;19.958;2023-11-18T00:28:17;5.53;72.70
68511;SHT31;55512;50.102;19.958;2023-11-18T00:30:44;5.49;72.70
68511;SHT31;55512;50.102;19.958;2023-11-18T00:33:10;5.48;72.70
68511;SHT31;55512;50.102;19.958;2023-11-18T00:35:36;5.46;72.70
68511;SHT31;55512;50.102;19.958;2023-11-18T00:38:02;5.46;72.64
68511;SHT31;55512;50.102;19.958;2023-11-18T00:40:27;5.45;72.60
68511;SHT31;55512;50.102;19.958;2023-11-18T00:42:54;5.46;72.62
68511;SHT31;55512;50.102;19.958;2023-11-18T00:45:21;5.46;72.61
68511;SHT31;55512;50.102;19.958;2023-11-18T00:47:47;5.44;72.60
68511;SHT31;55512;50.102;19.958;2023-11-18T00:50:12;5.44;72.68
68511;SHT31;55512;50.102;19.958;2023-11-18T00:52:38;5.46;72.70
68511;SHT31;55512;50.102;19.958;2023-11-18T00:55:06;5.46;72.64
68511;SHT31;55512;50.102;19.958;2023-11-18T00:57:33;5.42;72.64
68511;SHT31;55512;50.102;19.958;2023-11-18T01:00:00;5.37;72.70
68511;SHT31;55512;50.102;19.958;2023-11-18T01:02:25;5.32;72.77
68511;SHT31;55512;50.102;19.958;2023-11-18T01:04:51;5.31;72.80
68511;SHT31;55512;50.102;19.958;2023-11-18T01:07:17;5.30;72.89
68511;SHT31;55512;50.102;19.958;2023-11-18T01:09:42;5.31;72.90
68511;SHT31;55512;50.102;19.958;2023-11-18T01:12:08;5.28;72.87
68511;SHT31;55512;50.102;19.958;2023-11-18T01:14:38;5.28;72.80
68511;SHT31;55512;50.102;19.958;2023-11-18T01:17:07;5.27;72.80
68511;SHT31;55512;50.102;19.958;2023-11-18T01:19:36;5.30;72.78
68511;SHT31;55512;50.102;19.958;2023-11-18T01:22:03;5.31;72.66
68511;SHT31;55512;50.102;19.958;2023-11-18T01:24:30;5.31;72.60
68511;SHT31;55512;50.102;19.958;2023-11-18T01:27:00;5.32;72.67
68511;SHT31;55512;50.102;19.958;2023-11-18T01:29:26;5.33;72.61
68511;SHT31;55512;50.102;19.958;2023-11-18T01:31:51;5.36;72.60
68511;SHT31;55512;50.102;19.958;2023-11-18T01:34:18;5.38;72.62
68511;SHT31;55512;50.102;19.958;2023-11-18T01:36:47;5.40;72.69
68511;SHT31;55512;50.102;19.958;2023-11-18T01:39:14;5.41;72.71
68511;SHT31;55512;50.102;19.958;2023-11-18T01:41:43;5.42;72.71
68511;SHT31;55512;50.102;19.958;2023-11-18T01:44:10;5.43;72.79
68511;SHT31;55512;50.102;19.958;2023-11-18T01:46:38;5.47;72.80
68511;SHT31;55512;50.102;19.958;2023-11-18T01:49:06;5.48;72.80
68511;SHT31;55512;50.102;19.958;2023-11-18T01:51:33;5.47;72.81
68511;SHT31;55512;50.102;19.958;2023-11-18T01:54:00;5.46;72.86
68511;SHT31;55512;50.102;19.958;2023-11-18T01:56:30;5.48;72.92
68511;SHT31;55512;50.102;19.958;2023-11-18T01:58:57;5.49;72.96
68511;SHT31;55512;50.102;19.958;2023-11-18T02:01:24;5.53;73.00
68511;SHT31;55512;50.102;19.958;2023-11-18T02:03:54;5.55;72.97
68511;SHT31;55512;50.102;19.958;2023-11-18T02:06:19;5.56;73.02
68511;SHT31;55512;50.102;19.958;2023-11-18T02:08:46;5.56;73.01
68511;SHT31;55512;50.102;19.958;2023-11-18T02:13:58;5.57;73.19
68511;SHT31;55512;50.102;19.958;2023-11-18T02:16:29;5.59;73.22
68511;SHT31;55512;50.102;19.958;2023-11-18T02:18:56;5.61;73.20
68511;SHT31;55512;50.102;19.958;2023-11-18T02:21:24;5.66;73.20
68511;SHT31;55512;50.102;19.958;2023-11-18T02:23:51;5.68;73.28
68511;SHT31;55512;50.102;19.958;2023-11-18T02:26:27;5.70;73.24
68511;SHT31;55512;50.102;19.958;2023-11-18T02:28:52;5.71;73.30
68511;SHT31;55512;50.102;19.958;2023-11-18T02:31:36;5.71;73.31
68511;SHT31;55512;50.102;19.958;2023-11-18T02:34:05;5.70;73.33
68511;SHT31;55512;50.102;19.958;2023-11-18T02:36:46;5.70;73.35
68511;SHT31;55512;50.102;19.958;2023-11-18T02:42:04;5.66;73.45
68511;SHT31;55512;50.102;19.958;2023-11-18T02:44:37;5.67;73.50
68511;SHT31;55512;50.102;19.958;2023-11-18T02:47:04;5.65;73.59
68511;SHT31;55512;50.102;19.958;2023-11-18T02:49:30;5.63;73.66
68511;SHT31;55512;50.102;19.958;2023-11-18T02:51:57;5.61;73.74
68511;SHT31;55512;50.102;19.958;2023-11-18T02:54:22;5.63;73.88
68511;SHT31;55512;50.102;19.958;2023-11-18T02:56:48;5.64;73.91
68511;SHT31;55512;50.102;19.958;2023-11-18T02:59:15;5.67;74.00
68511;SHT31;55512;50.102;19.958;2023-11-18T03:01:41;5.69;74.00
68511;SHT31;55512;50.102;19.958;2023-11-18T03:04:07;5.70;74.00
68511;SHT31;55512;50.102;19.958;2023-11-18T03:06:33;5.71;74.10
68511;SHT31;55512;50.102;19.958;2023-11-18T03:09:00;5.75;74.18
68511;SHT31;55512;50.102;19.958;2023-11-18T03:11:27;5.78;74.20
68511;SHT31;55512;50.102;19.958;2023-11-18T03:13:56;5.82;74.12
68511;SHT31;55512;50.102;19.958;2023-11-18T03:16:22;5.82;74.11
68511;SHT31;55512;50.102;19.958;2023-11-18T03:18:49;5.80;74.20
68511;SHT31;55512;50.102;19.958;2023-11-18T03:21:16;5.78;74.20
68511;SHT31;55512;50.102;19.958;2023-11-18T03:23:42;5.77;74.27
68511;SHT31;55512;50.102;19.958;2023-11-18T03:26:08;5.78;74.31
68511;SHT31;55512;50.102;19.958;2023-11-18T03:28:35;5.80;74.30
68511;SHT31;55512;50.102;19.958;2023-11-18T03:31:02;5.84;74.31
68511;SHT31;55512;50.102;19.958;2023-11-18T03:33:29;5.87;74.27
68511;SHT31;55512;50.102;19.958;2023-11-18T03:35:55;5.87;74.20
68511;SHT31;55512;50.102;19.958;2023-11-18T03:38:21;5.90;74.21
68511;SHT31;55512;50.102;19.958;2023-11-18T03:40:47;5.89;74.19
68511;SHT31;55512;50.102;19.958;2023-11-18T03:43:12;5.87;74.18
68511;SHT31;55512;50.102;19.958;2023-11-18T03:45:39;5.86;74.20
68511;SHT31;55512;50.102;19.958;2023-11-18T03:48:05;5.84;74.12
68511;SHT31;55512;50.102;19.958;2023-11-18T03:50:31;5.82;74.12
68511;SHT31;55512;50.102;19.958;2023-11-18T03:52:57;5.83;74.20
68511;SHT31;55512;50.102;19.958;2023-11-18T03:55:23;5.83;74.20
68511;SHT31;55512;50.102;19.958;2023-11-18T03:57:50;5.81;74.23
68511;SHT31;55512;50.102;19.958;2023-11-18T04:00:17;5.83;74.29
68511;SHT31;55512;50.102;19.958;2023-11-18T04:02:44;5.82;74.28
68511;SHT31;55512;50.102;19.958;2023-11-18T04:05:11;5.84;74.30
68511;SHT31;55512;50.102;19.958;2023-11-18T04:07:37;5.86;74.31
68511;SHT31;55512;50.102;19.958;2023-11-18T04:10:07;5.85;74.28
68511;SHT31;55512;50.102;19.958;2023-11-18T04:12:35;5.84;74.26
68511;SHT31;55512;50.102;19.958;2023-11-18T04:15:04;5.83;74.20
68511;SHT31;55512;50.102;19.958;2023-11-18T04:17:31;5.85;74.13
68511;SHT31;55512;50.102;19.958;2023-11-18T04:19:57;5.88;74.04
68511;SHT31;55512;50.102;19.958;2023-11-18T04:22:22;5.91;73.90
68511;SHT31;55512;50.102;19.958;2023-11-18T04:24:48;5.94;73.85
68511;SHT31;55512;50.102;19.958;2023-11-18T04:27:15;5.97;73.72
68511;SHT31;55512;50.102;19.958;2023-11-18T04:29:41;5.96;73.61
68511;SHT31;55512;50.102;19.958;2023-11-18T04:32:07;5.97;73.62
68511;SHT31;55512;50.102;19.958;2023-11-18T04:34:36;5.97;73.61
68511;SHT31;55512;50.102;19.958;2023-11-18T04:37:02;5.96;73.64
68511;SHT31;55512;50.102;19.958;2023-11-18T04:39:31;5.97;73.60
68511;SHT31;55512;50.102;19.958;2023-11-18T04:41:57;5.98;73.62
68511;SHT31;55512;50.102;19.958;2023-11-18T04:44:23;6.01;73.60
68511;SHT31;55512;50.102;19.958;2023-11-18T04:46:49;6.01;73.59
68511;SHT31;55512;50.102;19.958;2023-11-18T04:49:15;6.01;73.57
68511;SHT31;55512;50.102;19.958;2023-11-18T04:51:41;6.01;73.59
68511;SHT31;55512;50.102;19.958;2023-11-18T04:54:06;6.00;73.60
68511;SHT31;55512;50.102;19.958;2023-11-18T04:56:33;5.99;73.56
68511;SHT31;55512;50.102;19.958;2023-11-18T04:59:01;5.97;73.59
68511;SHT31;55512;50.102;19.958;2023-11-18T05:01:31;5.95;73.62
68511;SHT31;55512;50.102;19.958;2023-11-18T05:03:57;5.91;73.75
68511;SHT31;55512;50.102;19.958;2023-11-18T05:06:22;5.90;73.84
68511;SHT31;55512;50.102;19.958;2023-11-18T05:08:48;5.92;73.91
68511;SHT31;55512;50.102;19.958;2023-11-18T05:11:14;5.93;73.98
68511;SHT31;55512;50.102;19.958;2023-11-18T05:13:40;5.94;74.00
68511;SHT31;55512;50.102;19.958;2023-11-18T05:16:06;5.94;74.10
68511;SHT31;55512;50.102;19.958;2023-11-18T05:18:32;5.91;74.20
68511;SHT31;55512;50.102;19.958;2023-11-18T05:21:01;5.91;74.30
68511;SHT31;55512;50.102;19.958;2023-11-18T05:23:28;5.92;74.35
68511;SHT31;55512;50.102;19.958;2023-11-18T05:25:56;5.93;74.36
68511;SHT31;55512;50.102;19.958;2023-11-18T05:28:23;5.94;74.46
68511;SHT31;55512;50.102;19.958;2023-11-18T05:30:49;5.93;74.50
68511;SHT31;55512;50.102;19.958;2023-11-18T05:33:16;5.92;74.51
68511;SHT31;55512;50.102;19.958;2023-11-18T05:35:45;5.93;74.55
68511;SHT31;55512;50.102;19.958;2023-11-18T05:38:17;5.93;74.58
68511;SHT31;55512;50.102;19.958;2023-11-18T05:40:46;5.91;74.60
68511;SHT31;55512;50.102;19.958;2023-11-18T05:43:28;5.91;74.65
68511;SHT31;55512;50.102;19.958;2023-11-18T05:46:04;5.92;74.64
68511;SHT31;55512;50.102;19.958;2023-11-18T05:48:49;5.93;74.70
68511;SHT31;55512;50.102;19.958;2023-11-18T05:51:18;5.96;74.70
68511;SHT31;55512;50.102;19.958;2023-11-18T05:53:49;5.98;74.73
68511;SHT31;55512;50.102;19.958;2023-11-18T05:56:16;5.98;74.71
68511;SHT31;55512;50.102;19.958;2023-11-18T05:58:42;5.98;74.70
68511;SHT31;55512;50.102;19.958;2023-11-18T06:01:11;5.96;74.75
68511;SHT31;55512;50.102;19.958;2023-11-18T06:03:38;5.97;74.87
68511;SHT31;55512;50.102;19.958;2023-11-18T06:06:06;6.00;74.94
68511;SHT31;55512;50.102;19.958;2023-11-18T06:08:39;5.99;74.90
68511;SHT31;55512;50.102;19.958;2023-11-18T06:11:10;5.98;74.90
68511;SHT31;55512;50.102;19.958;2023-11-18T06:13:57;5.94;74.91
68511;SHT31;55512;50.102;19.958;2023-11-18T06:16:24;5.92;75.02
68511;SHT31;55512;50.102;19.958;2023-11-18T06:18:54;5.91;75.10
68511;SHT31;55512;50.102;19.958;2023-11-18T06:21:22;5.92;75.10
68511;SHT31;55512;50.102;19.958;2023-11-18T06:23:52;5.93;75.11
68511;SHT31;55512;50.102;19.958;2023-11-18T06:26:19;5.96;75.11
68511;SHT31;55512;50.102;19.958;2023-11-18T06:28:46;5.95;75.00
68511;SHT31;55512;50.102;19.958;2023-11-18T06:31:16;5.95;75.07
68511;SHT31;55512;50.102;19.958;2023-11-18T06:33:42;5.96;75.10
68511;SHT31;55512;50.102;19.958;2023-11-18T06:38:39;6.03;75.20
68511;SHT31;55512;50.102;19.958;2023-11-18T06:41:11;6.05;75.20
68511;SHT31;55512;50.102;19.958;2023-11-18T06:43:41;6.04;75.20
68511;SHT31;55512;50.102;19.958;2023-11-18T06:46:21;5.98;74.78
68511;SHT31;55512;50.102;19.958;2023-11-18T06:48:49;5.88;74.27
68511;SHT31;55512;50.102;19.958;2023-11-18T06:51:20;5.75;73.98
68511;SHT31;55512;50.102;19.958;2023-11-18T06:53:56;5.70;73.97
68511;SHT31;55512;50.102;19.958;2023-11-18T06:56:25;5.68;73.95
68511;SHT31;55512;50.102;19.958;2023-11-18T06:58:52;5.66;73.85
68511;SHT31;55512;50.102;19.958;2023-11-18T07:01:19;5.66;73.83
68511;SHT31;55512;50.102;19.958;2023-11-18T07:03:45;5.64;73.76
68511;SHT31;55512;50.102;19.958;2023-11-18T07:06:22;5.64;73.71
68511;SHT31;55512;50.102;19.958;2023-11-18T07:08:48;5.62;73.65
68511;SHT31;55512;50.102;19.958;2023-11-18T07:11:14;5.61;73.61
68511;SHT31;55512;50.102;19.958;2023-11-18T07:13:44;5.56;73.60
68511;SHT31;55512;50.102;19.958;2023-11-18T07:16:12;5.55;73.68
68511;SHT31;55512;50.102;19.958;2023-11-18T07:18:39;5.58;73.75
68511;SHT31;55512;50.102;19.958;2023-11-18T07:21:07;5.63;73.75
68511;SHT31;55512;50.102;19.958;2023-11-18T07:23:34;5.68;73.82
68511;SHT31;55512;50.102;19.958;2023-11-18T07:26:00;5.75;73.90
68511;SHT31;55512;50.102;19.958;2023-11-18T07:28:30;5.80;73.91
68511;SHT31;55512;50.102;19.958;2023-11-18T07:30:56;5.83;73.88
68511;SHT31;55512;50.102;19.958;2023-11-18T07:33:23;5.86;73.79
68511;SHT31;55512;50.102;19.958;2023-11-18T07:35:49;5.90;73.71
68511;SHT31;55512;50.102;19.958;2023-11-18T07:38:15;5.93;73.64
68511;SHT31;55512;50.102;19.958;2023-11-18T07:40:41;5.94;73.58
68511;SHT31;55512;50.102;19.958;2023-11-18T07:43:10;5.95;73.54
68511;SHT31;55512;50.102;19.958;2023-11-18T07:45:37;5.93;73.41
68511;SHT31;55512;50.102;19.958;2023-11-18T07:48:05;5.93;73.26
68511;SHT31;55512;50.102;19.958;2023-11-18T07:50:38;5.95;73.09
68511;SHT31;55512;50.102;19.958;2023-11-18T07:53:12;5.96;72.86
68511;SHT31;55512;50.102;19.958;2023-11-18T07:55:38;5.98;72.63
68511;SHT31;55512;50.102;19.958;2023-11-18T07:58:04;6.01;72.51
68511;SHT31;55512;50.102;19.958;2023-11-18T08:00:36;6.01;72.50
68511;SHT31;55512;50.102;19.958;2023-11-18T08:03:09;6.02;72.35
68511;SHT31;55512;50.102;19.958;2023-11-18T08:05:38;6.01;71.77
68511;SHT31;55512;50.102;19.958;2023-11-18T08:08:12;5.97;71.18
68511;SHT31;55512;50.102;19.958;2023-11-18T08:10:40;5.97;71.00
68511;SHT31;55512;50.102;19.958;2023-11-18T08:13:07;6.01;71.07
68511;SHT31;55512;50.102;19.958;2023-11-18T08:15:34;6.04;70.95
68511;SHT31;55512;50.102;19.958;2023-11-18T08:18:02;6.08;70.71
68511;SHT31;55512;50.102;19.958;2023-11-18T08:20:28;6.13;70.84
68511;SHT31;55512;50.102;19.958;2023-11-18T08:22:54;6.16;70.73
68511;SHT31;55512;50.102;19.958;2023-11-18T08:25:20;6.18;70.36
68511;SHT31;55512;50.102;19.958;2023-11-18T08:27:47;6.18;70.17
68511;SHT31;55512;50.102;19.958;2023-11-18T08:30:13;6.19;70.15
68511;SHT31;55512;50.102;19.958;2023-11-18T08:32:43;6.26;70.35
68511;SHT31;55512;50.102;19.958;2023-11-18T08:35:13;6.33;70.21
68511;SHT31;55512;50.102;19.958;2023-11-18T08:37:40;6.36;70.07
68511;SHT31;55512;50.102;19.958;2023-11-18T08:40:08;6.39;70.08
68511;SHT31;55512;50.102;19.958;2023-11-18T08:42:47;6.38;70.03
68511;SHT31;55512;50.102;19.958;2023-11-18T08:45:36;6.38;70.07
68511;SHT31;55512;50.102;19.958;2023-11-18T08:48:02;6.37;69.83
68511;SHT31;55512;50.102;19.958;2023-11-18T08:50:35;6.36;69.99
68511;SHT31;55512;50.102;19.958;2023-11-18T08:53:04;6.32;69.98
68511;SHT31;55512;50.102;19.958;2023-11-18T08:55:31;6.24;69.71
68511;SHT31;55512;50.102;19.958;2023-11-18T08:58:07;6.19;69.82
68511;SHT31;55512;50.102;19.958;2023-11-18T09:00:43;6.16;70.09
68511;SHT31;55512;50.102;19.958;2023-11-18T09:03:17;6.13;70.06
68511;SHT31;55512;50.102;19.958;2023-11-18T09:06:04;6.10;70.18
68511;SHT31;55512;50.102;19.958;2023-11-18T09:08:42;6.09;70.40
68511;SHT31;55512;50.102;19.958;2023-11-18T09:11:09;6.08;70.50
68511;SHT31;55512;50.102;19.958;2023-11-18T09:13:44;6.05;70.59
68511;SHT31;55512;50.102;19.958;2023-11-18T09:16:12;6.05;70.65
68511;SHT31;55512;50.102;19.958;2023-11-18T09:18:39;6.04;70.64
68511;SHT31;55512;50.102;19.958;2023-11-18T09:21:07;6.01;70.54
68511;SHT31;55512;50.102;19.958;2023-11-18T09:23:39;5.98;70.75
68511;SHT31;55512;50.102;19.958;2023-11-18T09:26:06;5.92;70.69
68511;SHT31;55512;50.102;19.958;2023-11-18T09:28:32;5.83;70.76
68511;SHT31;55512;50.102;19.958;2023-11-18T09:31:06;5.69;70.87
68511;SHT31;55512;50.102;19.958;2023-11-18T09:33:36;5.57;71.07
68511;SHT31;55512;50.102;19.958;2023-11-18T09:36:08;5.49;71.03
68511;SHT31;55512;50.102;19.958;2023-11-18T09:38:37;5.38;70.77
68511;SHT31;55512;50.102;19.958;2023-11-18T09:41:09;5.30;70.86
68511;SHT31;55512;50.102;19.958;2023-11-18T09:43:42;5.24;71.09
68511;SHT31;55512;50.102;19.958;2023-11-18T09:46:13;5.18;71.11
68511;SHT31;55512;50.102;19.958;2023-11-18T09:48:47;5.08;71.12
68511;SHT31;55512;50.102;19.958;2023-11-18T09:51:21;4.95;71.21
68511;SHT31;55512;50.102;19.958;2023-11-18T09:53:49;4.90;71.44
68511;SHT31;55512;50.102;19.958;2023-11-18T09:59:11;4.78;71.34
68511;SHT31;55512;50.102;19.958;2023-11-18T10:01:50;4.72;71.46
68511;SHT31;55512;50.102;19.958;2023-11-18T10:04:22;4.69;71.41
68511;SHT31;55512;50.102;19.958;2023-11-18T10:06:52;4.67;71.38
68511;SHT31;55512;50.102;19.958;2023-11-18T10:09:22;4.68;71.38
68511;SHT31;55512;50.102;19.958;2023-11-18T10:12:04;4.68;71.31
68511;SHT31;55512;50.102;19.958;2023-11-18T10:14:35;4.68;71.16
68511;SHT31;55512;50.102;19.958;2023-11-18T10:17:07;4.71;71.08
68511;SHT31;55512;50.102;19.958;2023-11-18T10:22:24;4.79;71.05
68511;SHT31;55512;50.102;19.958;2023-11-18T10:24:53;4.84;70.79
68511;SHT31;55512;50.102;19.958;2023-11-18T10:27:25;4.82;70.43
68511;SHT31;55512;50.102;19.958;2023-11-18T10:30:11;4.84;70.23
68511;SHT31;55512;50.102;19.958;2023-11-18T10:32:44;4.84;69.84
68511;SHT31;55512;50.102;19.958;2023-11-18T10:35:34;4.84;69.62
68511;SHT31;55512;50.102;19.958;2023-11-18T10:38:01;4.83;69.63
68511;SHT31;55512;50.102;19.958;2023-11-18T10:40:31;4.84;69.67
68511;SHT31;55512;50.102;19.958;2023-11-18T10:43:05;4.84;69.51
68511;SHT31;55512;50.102;19.958;2023-11-18T10:45:34;4.78;69.22
68511;SHT31;55512;50.102;19.958;2023-11-18T10:48:07;4.70;68.97
68511;SHT31;55512;50.102;19.958;2023-11-18T10:50:33;4.68;69.07
68511;SHT31;55512;50.102;19.958;2023-11-18T10:53:01;4.71;69.16
68511;SHT31;55512;50.102;19.958;2023-11-18T10:55:38;4.72;69.07
68511;SHT31;55512;50.102;19.958;2023-11-18T10:58:05;4.71;69.01
68511;SHT31;55512;50.102;19.958;2023-11-18T11:00:47;4.71;68.91
68511;SHT31;55512;50.102;19.958;2023-11-18T11:03:15;4.72;68.81
68511;SHT31;55512;50.102;19.958;2023-11-18T11:05:41;4.73;68.71
68511;SHT31;55512;50.102;19.958;2023-11-18T11:08:08;4.73;68.63
68511;SHT31;55512;50.102;19.958;2023-11-18T11:10:38;4.74;68.62
68511;SHT31;55512;50.102;19.958;2023-11-18T11:13:09;4.73;68.29
68511;SHT31;55512;50.102;19.958;2023-11-18T11:15:40;4.70;67.93
68511;SHT31;55512;50.102;19.958;2023-11-18T11:18:11;4.66;67.77
68511;SHT31;55512;50.102;19.958;2023-11-18T11:23:42;4.57;67.67
68511;SHT31;55512;50.102;19.958;2023-11-18T11:29:45;4.50;67.41
68511;SHT31;55512;50.102;19.958;2023-11-18T11:32:30;4.49;67.37
68511;SHT31;55512;50.102;19.958;2023-11-18T11:35:04;4.49;67.47
68511;SHT31;55512;50.102;19.958;2023-11-18T11:37:43;4.50;67.32
68511;SHT31;55512;50.102;19.958;2023-11-18T11:40:10;4.50;67.30
68511;SHT31;55512;50.102;19.958;2023-11-18T11:42:46;4.51;67.20
68511;SHT31;55512;50.102;19.958;2023-11-18T11:45:20;4.48;67.12
68511;SHT31;55512;50.102;19.958;2023-11-18T11:47:53;4.47;67.39
68511;SHT31;55512;50.102;19.958;2023-11-18T11:50:38;4.45;67.35
68511;SHT31;55512;50.102;19.958;2023-11-18T11:53:32;4.41;67.48
68511;SHT31;55512;50.102;19.958;2023-11-18T11:56:10;4.41;67.41
68511;SHT31;55512;50.102;19.958;2023-11-18T11:58:38;4.41;67.37
68511;SHT31;55512;50.102;19.958;2023-11-18T12:01:32;4.39;67.39
68511;SHT31;55512;50.102;19.958;2023-11-18T12:04:08;4.35;67.22
68511;SHT31;55512;50.102;19.958;2023-11-18T12:06:45;4.33;67.16
68511;SHT31;55512;50.102;19.958;2023-11-18T12:09:13;4.31;67.24
68511;SHT31;55512;50.102;19.958;2023-11-18T12:11:47;4.32;67.40
68511;SHT31;55512;50.102;19.958;2023-11-18T12:14:14;4.33;67.65
68511;SHT31;55512;50.102;19.958;2023-11-18T12:19:39;4.37;67.73
68511;SHT31;55512;50.102;19.958;2023-11-18T12:27:42;4.28;67.67
68511;SHT31;55512;50.102;19.958;2023-11-18T12:32:57;4.23;67.65
68511;SHT31;55512;50.102;19.958;2023-11-18T12:38:41;4.21;67.70
68511;SHT31;55512;50.102;19.958;2023-11-18T12:41:37;4.21;67.80
68511;SHT31;55512;50.102;19.958;2023-11-18T12:47:00;4.20;68.07
68511;SHT31;55512;50.102;19.958;2023-11-18T12:49:37;4.19;68.14
68511;SHT31;55512;50.102;19.958;2023-11-18T12:52:06;4.19;68.29
68511;SHT31;55512;50.102;19.958;2023-11-18T12:54:34;4.20;68.34
68511;SHT31;55512;50.102;19.958;2023-11-18T12:57:08;4.20;68.33
68511;SHT31;55512;50.102;19.958;2023-11-18T12:59:40;4.19;68.45
68511;SHT31;55512;50.102;19.958;2023-11-18T13:02:10;4.20;68.58
68511;SHT31;55512;50.102;19.958;2023-11-18T13:04:43;4.21;68.61
68511;SHT31;55512;50.102;19.958;2023-11-18T13:07:12;4.21;68.60
68511;SHT31;55512;50.102;19.958;2023-11-18T13:09:39;4.22;68.59
68511;SHT31;55512;50.102;19.958;2023-11-18T13:12:07;4.20;68.55
68511;SHT31;55512;50.102;19.958;2023-11-18T13:14:34;4.15;68.53
68511;SHT31;55512;50.102;19.958;2023-11-18T13:17:04;4.10;68.68
68511;SHT31;55512;50.102;19.958;2023-11-18T13:19:36;4.09;68.88
68511;SHT31;55512;50.102;19.958;2023-11-18T13:22:03;4.08;68.75
68511;SHT31;55512;50.102;19.958;2023-11-18T13:24:35;4.08;68.70
68511;SHT31;55512;50.102;19.958;2023-11-18T13:27:05;4.08;68.73
68511;SHT31;55512;50.102;19.958;2023-11-18T13:29:35;4.09;68.70
68511;SHT31;55512;50.102;19.958;2023-11-18T13:32:01;4.08;68.76
68511;SHT31;55512;50.102;19.958;2023-11-18T13:34:32;4.06;68.70
68511;SHT31;55512;50.102;19.958;2023-11-18T13:37:00;4.07;68.72
68511;SHT31;55512;50.102;19.958;2023-11-18T13:39:26;4.08;68.76
68511;SHT31;55512;50.102;19.958;2023-11-18T13:41:52;4.08;68.75
68511;SHT31;55512;50.102;19.958;2023-11-18T13:44:31;4.05;68.52
68511;SHT31;55512;50.102;19.958;2023-11-18T13:47:07;4.03;68.60
68511;SHT31;55512;50.102;19.958;2023-11-18T13:49:36;4.06;68.71
68511;SHT31;55512;50.102;19.958;2023-11-18T13:52:05;4.10;68.67
68511;SHT31;55512;50.102;19.958;2023-11-18T13:54:36;4.11;68.50
68511;SHT31;55512;50.102;19.958;2023-11-18T13:57:05;4.12;68.40
68511;SHT31;55512;50.102;19.958;2023-11-18T13:59:31;4.12;68.33
68511;SHT31;55512;50.102;19.958;2023-11-18T14:01:58;4.11;68.30
68511;SHT31;55512;50.102;19.958;2023-11-18T14:04:28;4.11;68.44
68511;SHT31;55512;50.102;19.958;2023-11-18T14:06:57;4.11;68.37
68511;SHT31;55512;50.102;19.958;2023-11-18T14:09:25;4.10;68.45
68511;SHT31;55512;50.102;19.958;2023-11-18T14:11:54;4.13;68.45
68511;SHT31;55512;50.102;19.958;2023-11-18T14:14:21;4.13;68.40
68511;SHT31;55512;50.102;19.958;2023-11-18T14:16:50;4.15;68.46
68511;SHT31;55512;50.102;19.958;2023-11-18T14:19:22;4.16;68.50
68511;SHT31;55512;50.102;19.958;2023-11-18T14:21:50;4.17;68.50
68511;SHT31;55512;50.102;19.958;2023-11-18T14:24:16;4.16;68.35
68511;SHT31;55512;50.102;19.958;2023-11-18T14:26:43;4.14;68.29
68511;SHT31;55512;50.102;19.958;2023-11-18T14:29:09;4.15;68.30
68511;SHT31;55512;50.102;19.958;2023-11-18T14:31:36;4.13;68.28
68511;SHT31;55512;50.102;19.958;2023-11-18T14:34:02;4.09;68.27
68511;SHT31;55512;50.102;19.958;2023-11-18T14:36:29;4.08;68.30
68511;SHT31;55512;50.102;19.958;2023-11-18T14:38:55;4.08;68.38
68511;SHT31;55512;50.102;19.958;2023-11-18T14:41:21;4.07;68.40
68511;SHT31;55512;50.102;19.958;2023-11-18T14:43:51;4.05;68.30
68511;SHT31;55512;50.102;19.958;2023-11-18T14:46:17;4.04;68.30
68511;SHT31;55512;50.102;19.958;2023-11-18T14:48:43;4.01;68.34
68511;SHT31;55512;50.102;19.958;2023-11-18T14:51:09;3.96;68.41
68511;SHT31;55512;50.102;19.958;2023-11-18T14:53:35;3.95;68.50
68511;SHT31;55512;50.102;19.958;2023-11-18T14:56:02;3.97;68.56
68511;SHT31;55512;50.102;19.958;2023-11-18T14:58:30;3.99;68.68
68511;SHT31;55512;50.102;19.958;2023-11-18T15:00:57;4.01;68.70
68511;SHT31;55512;50.102;19.958;2023-11-18T15:03:23;4.03;68.70
68511;SHT31;55512;50.102;19.958;2023-11-18T15:05:48;4.02;68.69
68511;SHT31;55512;50.102;19.958;2023-11-18T15:08:14;3.99;68.76
68511;SHT31;55512;50.102;19.958;2023-11-18T15:10:41;3.98;68.84
68511;SHT31;55512;50.102;19.958;2023-11-18T15:13:09;3.94;69.02
68511;SHT31;55512;50.102;19.958;2023-11-18T15:15:43;3.93;69.05
68511;SHT31;55512;50.102;19.958;2023-11-18T15:18:12;3.92;69.10
68511;SHT31;55512;50.102;19.958;2023-11-18T15:20:39;3.92;69.20
68511;SHT31;55512;50.102;19.958;2023-11-18T15:23:08;3.90;69.19
68511;SHT31;55512;50.102;19.958;2023-11-18T15:25:35;3.91;69.21
68511;SHT31;55512;50.102;19.958;2023-11-18T15:28:01;3.90;69.21
68511;SHT31;55512;50.102;19.958;2023-11-18T15:30:26;3.90;69.33
68511;SHT31;55512;50.102;19.958;2023-11-18T15:32:52;3.91;69.38
68511;SHT31;55512;50.102;19.958;2023-11-18T15:35:18;3.90;69.34
68511;SHT31;55512;50.102;19.958;2023-11-18T15:37:46;3.90;69.48
68511;SHT31;55512;50.102;19.958;2023-11-18T15:40:15;3.86;69.38
68511;SHT31;55512;50.102;19.958;2023-11-18T15:42:45;3.82;69.35
68511;SHT31;55512;50.102;19.958;2023-11-18T15:45:14;3.83;69.44
68511;SHT31;55512;50.102;19.958;2023-11-18T15:47:45;3.86;69.50
68511;SHT31;55512;50.102;19.958;2023-11-18T15:50:13;3.89;69.50
68511;SHT31;55512;50.102;19.958;2023-11-18T15:52:44;3.89;69.51
68511;SHT31;55512;50.102;19.958;2023-11-18T15:55:12;3.85;69.57
68511;SHT31;55512;50.102;19.958;2023-11-18T15:57:39;3.85;69.61
68511;SHT31;55512;50.102;19.958;2023-11-18T16:00:10;3.87;69.67
68511;SHT31;55512;50.102;19.958;2023-11-18T16:02:41;3.89;69.72
68511;SHT31;55512;50.102;19.958;2023-11-18T16:05:20;3.91;69.68
68511;SHT31;55512;50.102;19.958;2023-11-18T16:07:48;3.90;69.65
68511;SHT31;55512;50.102;19.958;2023-11-18T16:10:24;3.89;69.65
68511;SHT31;55512;50.102;19.958;2023-11-18T16:12:54;3.89;69.66
68511;SHT31;55512;50.102;19.958;2023-11-18T16:15:21;3.92;69.82
68511;SHT31;55512;50.102;19.958;2023-11-18T16:17:49;3.93;69.89
68511;SHT31;55512;50.102;19.958;2023-11-18T16:20:15;3.96;69.90